Rechercher aéroport 
image banner adimage banner adimage banner ad
image banner ad

91CA - Devers Substation

Situé à Desert Hot Springs, United States

ICAO - 91CA, IATA -

Données fournies par Airmate  

Information générale

Coordonnées: N33°56'24" W116°34'29"
Élévation : 1150 feet MSL.
Variation magnétique : 14° East
Voir autres Aéroports à California

Données opérationnelles

Special qualification required
Heure actuelle UTC:
Heure actuelle locale:
Météo à : KPSP - Palm Springs Intl ( 14 km )
METAR: KPSP 262253Z AUTO 09004KT 10SM CLR 36/18 A2987 RMK AO2 SLP111 T03560183
TAF: KPSP 261726Z 2618/2718 VRB06KT P6SM FEW035 SCT110 FM262100 10007KT P6SM BKN100 FM262300 12009KT P6SM VCTS BKN090CB FM270300 32009KT P6SM FEW250 FM270800 VRB04KT P6SM SKC
Voir NOTAMs / SUP AIP / TFR affectant cet aéroport [VIEW]
Fréquences de communication: [VIEW]

Pistes:

Coordonnées de l'aéroport

Adresse: Desert Hot Springs United States

Vue satellite de 91CA